createdAt,value
2018-12-25T00:00:50.122Z,999.952
2018-12-25T00:02:50.164Z,999.952
2018-12-25T00:04:49.584Z,999.936
2018-12-25T00:06:49.847Z,999.935
2018-12-25T00:08:49.834Z,999.944
2018-12-25T00:10:49.830Z,999.965
2018-12-25T00:12:49.836Z,999.969
2018-12-25T00:14:49.778Z,999.976
2018-12-25T00:16:50.082Z,999.908
2018-12-25T00:18:50.090Z,999.862
2018-12-25T00:20:50.050Z,999.829
2018-12-25T00:22:50.152Z,999.804
2018-12-25T00:24:50.136Z,999.808
2018-12-25T00:26:50.396Z,999.792
2018-12-25T00:28:50.419Z,999.770
2018-12-25T00:30:50.430Z,999.776
2018-12-25T00:32:50.367Z,999.789
2018-12-25T00:34:49.774Z,999.820
2018-12-25T00:36:50.073Z,999.800
2018-12-25T00:38:50.147Z,999.764
2018-12-25T00:40:50.171Z,999.738
2018-12-25T00:42:50.119Z,999.723
2018-12-25T00:44:50.171Z,999.688
2018-12-25T00:46:50.314Z,999.666
2018-12-25T00:48:50.308Z,999.662
2018-12-25T00:50:50.289Z,999.678
2018-12-25T00:52:50.197Z,999.688
2018-12-25T00:54:50.246Z,999.679
2018-12-25T00:56:50.532Z,999.683
2018-12-25T00:58:50.549Z,999.729
2018-12-25T01:00:50.568Z,999.759
2018-12-25T01:02:50.565Z,999.838
2018-12-25T01:04:49.843Z,999.929
2018-12-25T01:06:49.976Z,1000.037
2018-12-25T01:08:49.958Z,1000.096
2018-12-25T01:10:49.901Z,1000.104
2018-12-25T01:12:49.850Z,1000.134
2018-12-25T01:14:49.846Z,1000.120
2018-12-25T01:16:49.981Z,1000.100
2018-12-25T01:18:49.910Z,1000.080
2018-12-25T01:20:49.930Z,1000.086
2018-12-25T01:22:49.860Z,1000.080
2018-12-25T01:24:49.857Z,1000.086
2018-12-25T01:26:50.014Z,1000.102
2018-12-25T01:28:49.990Z,1000.139
2018-12-25T01:30:49.917Z,1000.165
2018-12-25T01:32:49.886Z,1000.186
2018-12-25T01:34:50.183Z,1000.210
2018-12-25T01:36:50.425Z,1000.223
2018-12-25T01:38:50.331Z,1000.242
2018-12-25T01:40:50.271Z,1000.230
2018-12-25T01:42:50.335Z,1000.218
2018-12-25T01:44:50.277Z,1000.198
2018-12-25T01:46:50.430Z,1000.181
2018-12-25T01:48:50.477Z,1000.170
2018-12-25T01:50:50.512Z,1000.166
2018-12-25T01:52:50.468Z,1000.188
2018-12-25T01:54:50.433Z,1000.208
2018-12-25T01:56:49.653Z,1000.212
2018-12-25T01:58:50.566Z,1000.211
2018-12-25T02:00:49.652Z,1000.216
2018-12-25T02:02:49.621Z,1000.206
2018-12-25T02:04:49.931Z,1000.206
2018-12-25T02:06:50.109Z,1000.208
2018-12-25T02:08:50.067Z,1000.182
2018-12-25T02:10:50.056Z,1000.159
2018-12-25T02:12:50.119Z,1000.132
2018-12-25T02:14:50.130Z,1000.080
2018-12-25T02:16:50.418Z,1000.058
2018-12-25T02:18:50.488Z,1000.031
2018-12-25T02:20:50.572Z,1000.031
2018-12-25T02:22:49.746Z,999.978
2018-12-25T02:24:49.902Z,999.963
2018-12-25T02:26:50.043Z,999.960
2018-12-25T02:28:50.029Z,999.967
2018-12-25T02:30:50.068Z,999.982
2018-12-25T02:32:50.045Z,999.996
2018-12-25T02:34:50.340Z,1000.023
2018-12-25T02:36:50.497Z,1000.019
2018-12-25T02:38:50.473Z,1000.066
2018-12-25T02:40:50.489Z,1000.108
2018-12-25T02:42:50.590Z,1000.164
2018-12-25T02:44:50.554Z,1000.166
2018-12-25T02:46:49.897Z,1000.169
2018-12-25T02:48:49.940Z,1000.155
2018-12-25T02:50:49.918Z,1000.184
2018-12-25T02:52:49.898Z,1000.191
2018-12-25T02:54:49.841Z,1000.146
2018-12-25T02:56:50.084Z,1000.122
2018-12-25T02:58:50.036Z,1000.095
2018-12-25T03:00:50.011Z,1000.063
2018-12-25T03:02:50.072Z,1000.021
2018-12-25T03:04:50.375Z,1000.010
2018-12-25T03:06:49.626Z,999.941
2018-12-25T03:08:49.887Z,999.926
2018-12-25T03:10:49.923Z,999.899
2018-12-25T03:12:49.916Z,999.853
2018-12-25T03:14:49.891Z,999.808
2018-12-25T03:16:50.084Z,999.773
2018-12-25T03:18:50.054Z,999.752
2018-12-25T03:20:50.033Z,999.764
2018-12-25T03:22:50.010Z,999.759
2018-12-25T03:24:50.019Z,999.772
2018-12-25T03:26:50.207Z,999.793
2018-12-25T03:28:50.146Z,999.811
2018-12-25T03:30:50.175Z,999.812
2018-12-25T03:32:50.311Z,999.812
2018-12-25T03:34:49.610Z,999.770
2018-12-25T03:36:49.796Z,999.746
2018-12-25T03:38:49.893Z,999.740
2018-12-25T03:40:49.829Z,999.733
2018-12-25T03:42:49.859Z,999.720
2018-12-25T03:44:49.897Z,999.707
2018-12-25T03:46:50.043Z,999.721
2018-12-25T03:48:49.988Z,999.750
2018-12-25T03:50:49.976Z,999.745
2018-12-25T03:52:50.025Z,999.710
2018-12-25T03:54:50.035Z,999.677
2018-12-25T03:56:50.333Z,999.669
2018-12-25T03:58:50.261Z,999.671
2018-12-25T04:00:50.268Z,999.663
2018-12-25T04:02:50.237Z,999.655
2018-12-25T04:04:50.486Z,999.628
2018-12-25T04:06:49.712Z,999.628
2018-12-25T04:08:49.745Z,999.622
2018-12-25T04:10:49.777Z,999.608
2018-12-25T04:12:49.799Z,999.564
2018-12-25T04:14:50.025Z,999.536
2018-12-25T04:16:50.154Z,999.536
2018-12-25T04:18:50.166Z,999.520
2018-12-25T04:20:50.194Z,999.512
2018-12-25T04:22:50.225Z,999.524
2018-12-25T04:24:50.230Z,999.527
2018-12-25T04:26:50.409Z,999.548
2018-12-25T04:28:50.468Z,999.552
2018-12-25T04:30:50.455Z,999.567
2018-12-25T04:32:50.622Z,999.566
2018-12-25T04:34:50.154Z,999.552
2018-12-25T04:36:50.311Z,999.554
2018-12-25T04:38:50.315Z,999.565
2018-12-25T04:40:50.342Z,999.567
2018-12-25T04:42:50.317Z,999.599
2018-12-25T04:44:50.261Z,999.622
2018-12-25T04:46:50.458Z,999.645
2018-12-25T04:48:50.398Z,999.653
2018-12-25T04:50:50.534Z,999.660
2018-12-25T04:52:50.483Z,999.665
2018-12-25T04:54:50.482Z,999.642
2018-12-25T04:56:49.626Z,999.624
2018-12-25T04:58:49.623Z,999.621
2018-12-25T05:00:49.736Z,999.637
2018-12-25T05:02:49.750Z,999.637
2018-12-25T05:04:50.077Z,999.614
2018-12-25T05:06:50.193Z,999.586
2018-12-25T05:08:50.275Z,999.534
2018-12-25T05:10:50.235Z,999.535
2018-12-25T05:12:50.267Z,999.559
2018-12-25T05:14:50.245Z,999.575
2018-12-25T05:16:50.502Z,999.636
2018-12-25T05:18:50.496Z,999.655
2018-12-25T05:20:49.601Z,999.648
2018-12-25T05:22:50.635Z,999.645
2018-12-25T05:24:49.613Z,999.630
2018-12-25T05:26:50.324Z,999.631
2018-12-25T05:28:50.290Z,999.646
2018-12-25T05:30:50.302Z,999.637
2018-12-25T05:32:50.258Z,999.612
2018-12-25T05:34:50.509Z,999.634
2018-12-25T05:36:49.839Z,999.627
2018-12-25T05:38:49.870Z,999.624
2018-12-25T05:40:49.894Z,999.649
2018-12-25T05:42:49.883Z,999.682
2018-12-25T05:44:49.844Z,999.705
2018-12-25T05:46:49.927Z,999.734
2018-12-25T05:48:50.048Z,999.740
2018-12-25T05:50:50.081Z,999.740
2018-12-25T05:52:50.064Z,999.728
2018-12-25T05:54:50.063Z,999.727
2018-12-25T05:56:50.229Z,999.702
2018-12-25T05:58:50.171Z,999.655
2018-12-25T06:00:50.166Z,999.645
2018-12-25T06:02:50.174Z,999.608
2018-12-25T06:04:50.495Z,999.583
2018-12-25T06:06:49.696Z,999.534
2018-12-25T06:08:49.715Z,999.562
2018-12-25T06:10:49.777Z,999.580
2018-12-25T06:12:49.776Z,999.648
2018-12-25T06:14:49.865Z,999.699
2018-12-25T06:16:50.095Z,999.737
2018-12-25T06:18:50.083Z,999.831
2018-12-25T06:20:55.547Z,999.858
2018-12-25T06:22:49.608Z,999.860
2018-12-25T06:24:49.613Z,999.819
2018-12-25T06:26:49.778Z,999.838
2018-12-25T06:28:49.817Z,999.821
2018-12-25T06:30:49.828Z,999.821
2018-12-25T06:32:49.793Z,999.761
2018-12-25T06:34:50.207Z,999.749
2018-12-25T06:36:50.134Z,999.719
2018-12-25T06:38:50.022Z,999.740
2018-12-25T06:40:50.013Z,999.755
2018-12-25T06:42:50.086Z,999.745
2018-12-25T06:44:50.091Z,999.745
2018-12-25T06:46:50.261Z,999.747
2018-12-25T06:48:50.375Z,999.735
2018-12-25T06:50:50.299Z,999.730
2018-12-25T06:52:50.392Z,999.719
2018-12-25T06:54:50.346Z,999.697
2018-12-25T06:56:50.505Z,999.705
2018-12-25T06:58:50.539Z,999.720
2018-12-25T07:00:50.477Z,999.750
2018-12-25T07:02:50.494Z,999.760
2018-12-25T07:04:49.956Z,999.785
2018-12-25T07:06:50.826Z,999.785
2018-12-25T07:08:49.773Z,999.749
2018-12-25T07:10:49.785Z,999.729
2018-12-25T07:12:49.797Z,999.739
2018-12-25T07:14:49.908Z,999.733
2018-12-25T07:16:50.108Z,999.716
2018-12-25T07:18:50.168Z,999.726
2018-12-25T07:20:50.092Z,999.726
2018-12-25T07:22:50.096Z,999.700
2018-12-25T07:24:50.039Z,999.709
2018-12-25T07:26:50.227Z,999.714
2018-12-25T07:28:50.254Z,999.735
2018-12-25T07:30:50.147Z,999.781
2018-12-25T07:32:50.186Z,999.785
2018-12-25T07:34:50.519Z,999.787
2018-12-25T07:36:49.697Z,999.843
2018-12-25T07:38:49.669Z,999.869
2018-12-25T07:40:49.678Z,999.867
2018-12-25T07:42:49.843Z,999.840
2018-12-25T07:44:49.819Z,999.803
2018-12-25T07:46:50.091Z,999.781
2018-12-25T07:48:50.126Z,999.779
2018-12-25T07:50:50.041Z,999.765
2018-12-25T07:52:50.061Z,999.687
2018-12-25T07:54:50.021Z,999.658
2018-12-25T07:56:50.160Z,999.678
2018-12-25T07:58:50.139Z,999.692
2018-12-25T08:00:50.053Z,999.716
2018-12-25T08:02:50.068Z,999.743
2018-12-25T08:04:50.229Z,999.773
2018-12-25T08:06:50.457Z,999.731
2018-12-25T08:08:50.502Z,999.700
2018-12-25T08:10:50.443Z,999.695
2018-12-25T08:12:50.460Z,999.684
2018-12-25T08:14:50.427Z,999.696
2018-12-25T08:16:50.579Z,999.721
2018-12-25T08:18:49.704Z,999.742
2018-12-25T08:20:49.651Z,999.736
2018-12-25T08:22:49.802Z,999.723
2018-12-25T08:24:49.772Z,999.718
2018-12-25T08:26:50.051Z,999.707
2018-12-25T08:28:50.089Z,999.708
2018-12-25T08:30:50.134Z,999.696
2018-12-25T08:32:50.082Z,999.709
2018-12-25T08:34:50.305Z,999.673
2018-12-25T08:36:50.468Z,999.591
2018-12-25T08:38:50.408Z,999.532
2018-12-25T08:40:50.538Z,999.555
2018-12-25T08:42:50.576Z,999.594
2018-12-25T08:44:50.562Z,999.614
2018-12-25T08:46:49.797Z,999.624
2018-12-25T08:48:49.744Z,999.674
2018-12-25T08:50:49.733Z,999.678
2018-12-25T08:52:49.723Z,999.686
2018-12-25T08:54:49.733Z,999.700
2018-12-25T08:56:49.903Z,999.797
2018-12-25T08:58:49.851Z,999.854
2018-12-25T09:00:49.800Z,999.904
2018-12-25T09:02:49.883Z,999.913
2018-12-25T09:04:50.375Z,999.904
2018-12-25T09:06:50.686Z,999.891
2018-12-25T09:08:49.694Z,999.893
2018-12-25T09:10:49.739Z,999.902
2018-12-25T09:12:49.889Z,999.903
2018-12-25T09:14:49.828Z,999.906
2018-12-25T09:16:49.942Z,999.842
2018-12-25T09:18:49.969Z,999.806
2018-12-25T09:20:49.950Z,999.795
2018-12-25T09:22:49.998Z,999.795
2018-12-25T09:24:49.984Z,999.825
2018-12-25T09:26:50.210Z,999.816
2018-12-25T09:28:50.141Z,999.860
2018-12-25T09:30:50.186Z,999.837
2018-12-25T09:32:50.145Z,999.799
2018-12-25T09:34:50.479Z,999.741
2018-12-25T09:36:49.654Z,999.670
2018-12-25T09:38:49.633Z,999.560
2018-12-25T09:40:49.721Z,999.541
2018-12-25T09:42:49.830Z,999.564
2018-12-25T09:44:49.761Z,999.574
2018-12-25T09:46:49.932Z,999.564
2018-12-25T09:48:49.852Z,999.560
2018-12-25T09:50:49.779Z,999.566
2018-12-25T09:52:49.757Z,999.550
2018-12-25T09:54:49.757Z,999.540
2018-12-25T09:56:49.920Z,999.510
2018-12-25T09:58:49.904Z,999.517
2018-12-25T10:00:49.901Z,999.502
2018-12-25T10:02:49.866Z,999.515
2018-12-25T10:04:50.253Z,999.550
2018-12-25T10:06:50.566Z,999.529
2018-12-25T10:08:49.615Z,999.481
2018-12-25T10:10:49.719Z,999.445
2018-12-25T10:12:49.699Z,999.407
2018-12-25T10:14:49.820Z,999.391
2018-12-25T10:16:50.217Z,999.346
2018-12-25T10:18:50.247Z,999.325
2018-12-25T10:20:50.235Z,999.306
2018-12-25T10:22:50.224Z,999.289
2018-12-25T10:24:51.632Z,999.317
2018-12-25T10:26:49.753Z,999.352
2018-12-25T10:28:49.726Z,999.366
2018-12-25T10:30:49.760Z,999.387
2018-12-25T10:32:49.845Z,999.341
2018-12-25T10:34:50.088Z,999.312
2018-12-25T10:36:50.283Z,999.312
2018-12-25T10:38:50.177Z,999.315
2018-12-25T10:40:50.212Z,999.317
2018-12-25T10:42:50.170Z,999.274
2018-12-25T10:44:50.110Z,999.256
2018-12-25T10:46:50.235Z,999.212
2018-12-25T10:48:50.221Z,999.203
2018-12-25T10:50:50.234Z,999.172
2018-12-25T10:52:50.132Z,999.148
2018-12-25T10:54:50.065Z,999.148
2018-12-25T10:56:50.259Z,998.985
2018-12-25T10:58:50.157Z,998.913
2018-12-25T11:00:50.071Z,998.888
2018-12-25T11:02:50.049Z,998.906
2018-12-25T11:04:50.320Z,998.940
2018-12-25T11:06:50.457Z,998.962
2018-12-25T11:08:50.456Z,998.972
2018-12-25T11:10:50.392Z,998.966
2018-12-25T11:12:50.294Z,998.937
2018-12-25T11:14:50.275Z,998.949
2018-12-25T11:16:49.607Z,999.020
2018-12-25T11:18:49.682Z,999.045
2018-12-25T11:20:49.741Z,999.019
2018-12-25T11:22:49.720Z,998.963
2018-12-25T11:24:49.774Z,998.902
2018-12-25T11:26:49.907Z,998.878
2018-12-25T11:28:49.871Z,998.838
2018-12-25T11:30:49.810Z,998.839
2018-12-25T11:32:49.824Z,998.850
2018-12-25T11:34:50.185Z,998.902
2018-12-25T11:36:50.470Z,998.945
2018-12-25T11:38:50.509Z,999.033
2018-12-25T11:40:50.576Z,999.071
2018-12-25T11:42:50.456Z,999.129
2018-12-25T11:44:50.409Z,999.140
2018-12-25T11:46:49.599Z,999.140
2018-12-25T11:48:49.642Z,999.076
2018-12-25T11:50:49.631Z,999.059
2018-12-25T11:52:49.626Z,999.102
2018-12-25T11:54:49.759Z,999.137
2018-12-25T11:56:49.937Z,999.188
2018-12-25T11:58:49.841Z,999.265
2018-12-25T12:00:49.780Z,999.326
2018-12-25T12:02:49.803Z,999.365
2018-12-25T12:04:50.087Z,999.374
2018-12-25T12:06:50.165Z,999.370
2018-12-25T12:08:50.180Z,999.373
2018-12-25T12:10:50.180Z,999.353
2018-12-25T12:12:50.151Z,999.341
2018-12-25T12:14:50.105Z,999.327
2018-12-25T12:16:50.282Z,999.314
2018-12-25T12:18:50.247Z,999.307
2018-12-25T12:20:50.291Z,999.320
2018-12-25T12:22:50.238Z,999.312
2018-12-25T12:24:50.215Z,999.347
2018-12-25T12:26:50.336Z,999.397
2018-12-25T12:28:50.331Z,999.440
2018-12-25T12:30:50.362Z,999.461
2018-12-25T12:32:50.284Z,999.482
2018-12-25T12:34:50.572Z,999.508
2018-12-25T12:36:49.731Z,999.514
2018-12-25T12:38:49.751Z,999.546
2018-12-25T12:40:49.774Z,999.532
2018-12-25T12:42:49.838Z,999.516
2018-12-25T12:44:49.815Z,999.490
2018-12-25T12:46:49.944Z,999.473
2018-12-25T12:48:49.861Z,999.481
2018-12-25T12:50:49.850Z,999.479
2018-12-25T12:52:49.742Z,999.493
2018-12-25T12:54:49.718Z,999.512
2018-12-25T12:56:49.872Z,999.537
2018-12-25T12:58:49.870Z,999.561
2018-12-25T13:00:49.849Z,999.590
2018-12-25T13:02:49.839Z,999.601
2018-12-25T13:04:50.088Z,999.600
2018-12-25T13:06:50.260Z,999.595
2018-12-25T13:08:50.208Z,999.585
2018-12-25T13:10:50.222Z,999.614
2018-12-25T13:12:50.170Z,999.654
2018-12-25T13:14:50.105Z,999.674
2018-12-25T13:16:50.238Z,999.675
2018-12-25T13:18:50.189Z,999.652
2018-12-25T13:20:50.165Z,999.665
2018-12-25T13:22:54.609Z,999.678
2018-12-25T13:24:49.656Z,999.681
2018-12-25T13:26:49.778Z,999.692
2018-12-25T13:28:49.776Z,999.688
2018-12-25T13:30:49.886Z,999.700
2018-12-25T13:32:49.853Z,999.721
2018-12-25T13:34:50.070Z,999.760
2018-12-25T13:36:50.206Z,999.784
2018-12-25T13:38:50.150Z,999.806
2018-12-25T13:40:50.151Z,999.833
2018-12-25T13:42:50.085Z,999.846
2018-12-25T13:44:50.060Z,999.854
2018-12-25T13:46:52.150Z,999.839
2018-12-25T13:48:50.151Z,999.846
2018-12-25T13:50:50.225Z,999.840
2018-12-25T13:52:50.198Z,999.837
2018-12-25T13:54:50.169Z,999.837
2018-12-25T13:56:50.368Z,999.839
2018-12-25T13:58:50.314Z,999.853
2018-12-25T14:00:50.196Z,999.854
2018-12-25T14:02:50.196Z,999.866
2018-12-25T14:04:50.492Z,999.845
2018-12-25T14:06:49.703Z,999.837
2018-12-25T14:08:49.635Z,999.818
2018-12-25T14:10:49.613Z,999.839
2018-12-25T14:12:49.597Z,999.873
2018-12-25T14:14:49.616Z,999.874
2018-12-25T14:16:49.800Z,999.889
2018-12-25T14:18:49.815Z,999.898
2018-12-25T14:20:49.877Z,999.903
2018-12-25T14:22:49.882Z,999.890
2018-12-25T14:24:49.818Z,999.906
2018-12-25T14:26:50.038Z,999.923
2018-12-25T14:28:49.970Z,999.920
2018-12-25T14:30:49.885Z,999.919
2018-12-25T14:32:49.876Z,999.921
2018-12-25T14:34:50.189Z,999.926
2018-12-25T14:36:50.256Z,999.945
2018-12-25T14:38:50.232Z,999.975
2018-12-25T14:40:50.230Z,1000.004
2018-12-25T14:42:50.283Z,1000.022
2018-12-25T14:44:50.292Z,1000.035
2018-12-25T14:46:50.479Z,1000.048
2018-12-25T14:48:50.600Z,1000.080
2018-12-25T14:50:49.610Z,1000.108
2018-12-25T14:52:49.634Z,1000.102
2018-12-25T14:54:50.578Z,1000.115
2018-12-25T14:56:49.769Z,1000.124
2018-12-25T14:58:49.728Z,1000.141
2018-12-25T15:00:49.698Z,1000.142
2018-12-25T15:02:49.817Z,1000.147
2018-12-25T15:04:50.100Z,1000.157
2018-12-25T15:06:50.522Z,1000.158
2018-12-25T15:08:50.559Z,1000.163
2018-12-25T15:10:49.617Z,1000.165
2018-12-25T15:12:49.602Z,1000.189
2018-12-25T15:14:49.582Z,1000.222
2018-12-25T15:16:49.799Z,1000.209
2018-12-25T15:18:49.821Z,1000.176
2018-12-25T15:20:49.812Z,1000.170
2018-12-25T15:22:49.840Z,1000.135
2018-12-25T15:24:49.796Z,1000.108
2018-12-25T15:26:50.050Z,1000.099
2018-12-25T15:28:50.005Z,1000.105
2018-12-25T15:30:50.003Z,1000.098
2018-12-25T15:32:50.032Z,1000.100
2018-12-25T15:34:50.254Z,1000.110
2018-12-25T15:36:50.422Z,1000.106
2018-12-25T15:38:50.295Z,1000.114
2018-12-25T15:40:50.201Z,1000.114
2018-12-25T15:42:50.183Z,1000.156
2018-12-25T15:44:50.181Z,1000.159
2018-12-25T15:46:50.348Z,1000.178
2018-12-25T15:48:50.325Z,1000.169
2018-12-25T15:50:50.373Z,1000.162
2018-12-25T15:52:50.391Z,1000.169
2018-12-25T15:54:50.303Z,1000.185
2018-12-25T15:56:50.404Z,1000.193
2018-12-25T15:58:50.342Z,1000.187
2018-12-25T16:00:50.392Z,1000.174
2018-12-25T16:02:50.301Z,1000.159
2018-12-25T16:04:50.599Z,1000.133
2018-12-25T16:06:49.869Z,1000.137
2018-12-25T16:08:49.828Z,1000.130
2018-12-25T16:10:49.781Z,1000.172
2018-12-25T16:12:49.777Z,1000.192
2018-12-25T16:14:49.798Z,1000.185
2018-12-25T16:16:49.944Z,1000.179
2018-12-25T16:18:49.874Z,1000.155
2018-12-25T16:20:49.912Z,1000.132
2018-12-25T16:22:49.820Z,1000.116
2018-12-25T16:24:49.775Z,1000.118
2018-12-25T16:26:50.047Z,1000.131
2018-12-25T16:28:49.987Z,1000.146
2018-12-25T16:30:50.087Z,1000.159
2018-12-25T16:32:50.044Z,1000.138
2018-12-25T16:34:50.351Z,1000.098
2018-12-25T16:36:49.604Z,1000.085
2018-12-25T16:38:50.565Z,1000.084
2018-12-25T16:40:50.528Z,1000.074
2018-12-25T16:42:50.584Z,1000.074
2018-12-25T16:44:50.466Z,1000.028
2018-12-25T16:46:49.740Z,1000.033
2018-12-25T16:48:49.812Z,1000.096
2018-12-25T16:50:50.121Z,1000.126
2018-12-25T16:52:50.159Z,1000.129
2018-12-25T16:54:50.135Z,1000.128
2018-12-25T16:56:50.315Z,1000.125
2018-12-25T16:58:50.289Z,1000.095
2018-12-25T17:00:50.393Z,1000.095
2018-12-25T17:02:50.403Z,1000.110
2018-12-25T17:04:49.835Z,1000.121
2018-12-25T17:06:49.947Z,1000.108
2018-12-25T17:08:49.859Z,1000.129
2018-12-25T17:10:49.894Z,1000.128
2018-12-25T17:12:49.859Z,1000.128
2018-12-25T17:14:49.809Z,1000.146
2018-12-25T17:16:50.090Z,1000.113
2018-12-25T17:18:50.069Z,1000.098
2018-12-25T17:20:50.039Z,1000.099
2018-12-25T17:22:49.982Z,1000.071
2018-12-25T17:24:49.928Z,1000.057
2018-12-25T17:26:50.046Z,1000.005
2018-12-25T17:28:50.033Z,1000.005
2018-12-25T17:30:50.054Z,999.945
2018-12-25T17:32:50.027Z,999.950
2018-12-25T17:34:50.316Z,999.950
2018-12-25T17:36:50.523Z,999.970
2018-12-25T17:38:50.595Z,999.981
2018-12-25T17:40:50.578Z,999.982
2018-12-25T17:42:49.609Z,999.978
2018-12-25T17:44:49.650Z,1000.016
2018-12-25T17:46:49.925Z,999.990
2018-12-25T17:48:49.885Z,999.990
2018-12-25T17:50:49.865Z,999.994
2018-12-25T17:52:49.782Z,999.997
2018-12-25T17:54:49.759Z,1000.006
2018-12-25T17:56:49.855Z,1000.008
2018-12-25T17:58:49.800Z,1000.001
2018-12-25T18:00:49.821Z,1000.007
2018-12-25T18:02:49.805Z,1000.001
2018-12-25T18:04:50.133Z,999.998
2018-12-25T18:06:50.301Z,999.958
2018-12-25T18:08:50.240Z,999.936
2018-12-25T18:10:50.220Z,999.924
2018-12-25T18:12:50.234Z,999.888
2018-12-25T18:14:50.274Z,999.869
2018-12-25T18:16:50.444Z,999.819
2018-12-25T18:18:50.330Z,999.810
2018-12-25T18:20:50.355Z,999.817
2018-12-25T18:22:50.304Z,999.829
2018-12-25T18:24:50.246Z,999.848
2018-12-25T18:26:50.315Z,999.834
2018-12-25T18:28:50.225Z,999.817
2018-12-25T18:30:50.191Z,999.806
2018-12-25T18:32:50.144Z,999.825
2018-12-25T18:34:50.341Z,999.840
2018-12-25T18:36:50.497Z,999.846
2018-12-25T18:38:50.469Z,999.861
2018-12-25T18:40:50.477Z,999.881
2018-12-25T18:42:50.458Z,999.878
2018-12-25T18:44:50.451Z,999.875
2018-12-25T18:46:49.664Z,999.896
2018-12-25T18:48:49.637Z,999.914
2018-12-25T18:50:49.863Z,999.914
2018-12-25T18:52:49.937Z,999.926
2018-12-25T18:54:49.866Z,999.958
2018-12-25T18:56:50.013Z,999.958
2018-12-25T18:58:49.967Z,999.975
2018-12-25T19:00:49.952Z,999.981
2018-12-25T19:02:49.901Z,999.990
2018-12-25T19:04:50.167Z,1000.015
2018-12-25T19:06:50.380Z,1000.031
2018-12-25T19:08:50.373Z,1000.030
2018-12-25T19:10:50.329Z,1000.029
2018-12-25T19:12:50.327Z,1000.002
2018-12-25T19:14:50.327Z,999.969
2018-12-25T19:16:51.801Z,999.899
2018-12-25T19:18:49.796Z,999.882
2018-12-25T19:20:49.803Z,999.879
2018-12-25T19:22:49.780Z,999.868
2018-12-25T19:24:49.740Z,999.845
2018-12-25T19:26:49.950Z,999.815
2018-12-25T19:28:50.012Z,999.811
2018-12-25T19:30:49.994Z,999.805
2018-12-25T19:32:49.976Z,999.811
2018-12-25T19:34:50.324Z,999.861
2018-12-25T19:36:49.595Z,999.877
2018-12-25T19:38:49.650Z,999.859
2018-12-25T19:40:49.682Z,999.814
2018-12-25T19:42:49.751Z,999.812
2018-12-25T19:44:49.778Z,999.801
2018-12-25T19:46:49.938Z,999.800
2018-12-25T19:48:49.912Z,999.787
2018-12-25T19:50:49.866Z,999.783
2018-12-25T19:52:49.823Z,999.761
2018-12-25T19:54:49.777Z,999.770
2018-12-25T19:56:49.952Z,999.765
2018-12-25T19:58:49.882Z,999.742
2018-12-25T20:00:49.790Z,999.752
2018-12-25T20:02:49.854Z,999.730
2018-12-25T20:04:50.016Z,999.719
2018-12-25T20:06:50.220Z,999.738
2018-12-25T20:08:50.136Z,999.740
2018-12-25T20:10:49.737Z,999.741
2018-12-25T20:12:49.817Z,999.718
2018-12-25T20:14:50.193Z,999.699
2018-12-25T20:16:50.337Z,999.695
2018-12-25T20:18:50.229Z,999.691
2018-12-25T20:20:50.218Z,999.710
2018-12-25T20:22:50.219Z,999.709
2018-12-25T20:24:53.087Z,999.714
2018-12-25T20:26:50.222Z,999.714
2018-12-25T20:28:50.356Z,999.711
2018-12-25T20:30:50.344Z,999.713
2018-12-25T20:32:50.315Z,999.707
2018-12-25T20:34:49.696Z,999.698
2018-12-25T20:36:49.894Z,999.689
2018-12-25T20:38:49.765Z,999.689
2018-12-25T20:40:50.597Z,999.653
2018-12-25T20:42:50.393Z,999.630
2018-12-25T20:44:50.212Z,999.601
2018-12-25T20:46:50.323Z,999.596
2018-12-25T20:48:50.100Z,999.585
2018-12-25T20:50:49.953Z,999.546
2018-12-25T20:52:49.819Z,999.532
2018-12-25T20:54:49.721Z,999.522
2018-12-25T20:56:49.815Z,999.502
2018-12-25T20:58:49.623Z,999.536
2018-12-25T21:00:50.431Z,999.551
2018-12-25T21:02:50.191Z,999.543
2018-12-25T21:04:50.295Z,999.539
2018-12-25T21:06:50.327Z,999.530
2018-12-25T21:08:50.114Z,999.537
2018-12-25T21:10:49.901Z,999.498
2018-12-25T21:12:49.732Z,999.502
2018-12-25T21:14:50.637Z,999.497
2018-12-25T21:16:49.667Z,999.518
2018-12-25T21:18:50.567Z,999.523
2018-12-25T21:20:50.403Z,999.531
2018-12-25T21:22:50.242Z,999.532
2018-12-25T21:24:50.095Z,999.514
2018-12-25T21:26:50.156Z,999.518
2018-12-25T21:28:49.940Z,999.498
2018-12-25T21:30:49.747Z,999.464
2018-12-25T21:32:50.567Z,999.464
2018-12-25T21:34:49.723Z,999.433
2018-12-25T21:36:49.856Z,999.436
2018-12-25T21:38:49.783Z,999.415
2018-12-25T21:40:50.569Z,999.404
2018-12-25T21:42:50.422Z,999.400
2018-12-25T21:44:50.275Z,999.418
2018-12-25T21:46:50.352Z,999.429
2018-12-25T21:48:50.357Z,999.423
2018-12-25T21:50:50.158Z,999.412
2018-12-25T21:52:49.991Z,999.404
2018-12-25T21:54:49.789Z,999.441
2018-12-25T21:56:49.795Z,999.441
2018-12-25T21:58:49.663Z,999.417
2018-12-25T22:00:50.417Z,999.408
2018-12-25T22:02:50.236Z,999.397
2018-12-25T22:04:50.341Z,999.408
2018-12-25T22:06:50.340Z,999.415
2018-12-25T22:08:50.151Z,999.407
2018-12-25T22:10:49.916Z,999.346
2018-12-25T22:12:49.987Z,999.267
2018-12-25T22:14:49.746Z,999.229
2018-12-25T22:16:49.720Z,999.231
2018-12-25T22:18:50.485Z,999.236
2018-12-25T22:20:50.372Z,999.250
2018-12-25T22:22:50.186Z,999.261
2018-12-25T22:24:49.941Z,999.244
2018-12-25T22:26:50.009Z,999.238
2018-12-25T22:28:49.808Z,999.222
2018-12-25T22:30:49.630Z,999.219
2018-12-25T22:32:50.384Z,999.231
2018-12-25T22:34:50.493Z,999.212
2018-12-25T22:36:50.515Z,999.218
2018-12-25T22:38:50.352Z,999.250
2018-12-25T22:40:50.185Z,999.253
2018-12-25T22:42:49.976Z,999.265
2018-12-25T22:44:49.744Z,999.248
2018-12-25T22:46:49.797Z,999.236
2018-12-25T22:48:49.660Z,999.252
2018-12-25T22:50:50.956Z,999.246
2018-12-25T22:52:50.242Z,999.219
2018-12-25T22:54:50.146Z,999.223
2018-12-25T22:56:50.348Z,999.247
2018-12-25T22:58:50.356Z,999.242
2018-12-25T23:00:50.300Z,999.263
2018-12-25T23:02:50.282Z,999.257
2018-12-25T23:04:50.422Z,999.220
2018-12-25T23:06:49.603Z,999.216
2018-12-25T23:08:49.629Z,999.199
2018-12-25T23:10:49.652Z,999.157
2018-12-25T23:12:49.598Z,999.134
2018-12-25T23:14:49.609Z,999.108
2018-12-25T23:16:49.767Z,999.119
2018-12-25T23:18:49.680Z,999.083
2018-12-25T23:20:49.716Z,999.081
2018-12-25T23:22:49.811Z,999.040
2018-12-25T23:24:49.736Z,998.981
2018-12-25T23:26:49.920Z,998.931
2018-12-25T23:28:50.184Z,998.948
2018-12-25T23:30:50.387Z,998.981
2018-12-25T23:32:50.399Z,999.066
2018-12-25T23:34:49.818Z,999.092
2018-12-25T23:36:50.064Z,999.089
2018-12-25T23:38:50.054Z,999.089
2018-12-25T23:40:50.049Z,999.009
2018-12-25T23:42:50.098Z,998.998
2018-12-25T23:44:50.125Z,998.986
2018-12-25T23:46:50.255Z,998.996
2018-12-25T23:48:50.298Z,998.996
2018-12-25T23:50:50.282Z,998.981
2018-12-25T23:52:50.312Z,998.975
2018-12-25T23:54:50.364Z,998.965
2018-12-25T23:56:50.493Z,998.961
2018-12-25T23:58:50.601Z,998.944
